createdAt,value
2022-11-27T00:01:30.679Z,4.00
2022-11-27T00:03:57.685Z,4.03
2022-11-27T00:06:27.898Z,4.35
2022-11-27T00:08:57.187Z,4.78
2022-11-27T00:11:25.264Z,4.30
2022-11-27T00:13:52.787Z,4.47
2022-11-27T00:16:21.624Z,4.43
2022-11-27T00:18:49.286Z,3.85
2022-11-27T00:21:22.779Z,3.65
2022-11-27T00:23:50.890Z,4.32
2022-11-27T00:26:17.993Z,3.78
2022-11-27T00:28:45.181Z,3.47
2022-11-27T00:31:16.171Z,3.50
2022-11-27T00:33:43.473Z,3.72
2022-11-27T00:36:11.084Z,4.38
2022-11-27T00:38:39.315Z,3.65
2022-11-27T00:41:30.533Z,4.20
2022-11-27T00:43:58.121Z,4.32
2022-11-27T00:46:29.312Z,3.92
2022-11-27T00:49:01.630Z,3.47
2022-11-27T00:51:29.795Z,3.67
2022-11-27T00:53:57.390Z,3.80
2022-11-27T00:56:27.264Z,3.58
2022-11-27T00:58:54.644Z,3.65
2022-11-27T01:01:27.512Z,4.20
2022-11-27T01:03:59.119Z,3.93
2022-11-27T01:06:27.059Z,3.50
2022-11-27T01:08:54.179Z,3.45
2022-11-27T01:11:27.288Z,3.57
2022-11-27T01:13:57.460Z,3.40
2022-11-27T01:16:26.720Z,3.33
2022-11-27T01:18:57.636Z,3.60
2022-11-27T01:21:26.055Z,3.13
2022-11-27T01:23:54.582Z,3.40
2022-11-27T01:26:22.173Z,3.80
2022-11-27T01:28:52.428Z,3.28
2022-11-27T01:31:21.906Z,3.50
2022-11-27T01:33:53.425Z,2.78
2022-11-27T01:36:20.428Z,2.70
2022-11-27T01:38:47.322Z,3.75
2022-11-27T01:41:20.915Z,3.30
2022-11-27T01:43:51.234Z,3.35
2022-11-27T01:46:28.237Z,2.78
2022-11-27T01:49:01.062Z,3.45
2022-11-27T01:51:28.196Z,2.72
2022-11-27T01:53:55.715Z,2.53
2022-11-27T01:56:24.881Z,3.28
2022-11-27T01:58:52.594Z,3.25
2022-11-27T02:01:19.576Z,2.60
2022-11-27T02:03:46.556Z,2.63
2022-11-27T02:06:14.008Z,2.90
2022-11-27T02:08:42.128Z,2.78
2022-11-27T02:11:22.442Z,2.63
2022-11-27T02:13:58.425Z,2.70
2022-11-27T02:16:44.071Z,2.42
2022-11-27T02:20:00.298Z,2.63
2022-11-27T02:22:50.172Z,3.00
2022-11-27T02:25:27.997Z,3.13
2022-11-27T02:28:16.398Z,2.60
2022-11-27T02:30:51.885Z,2.53
2022-11-27T02:33:21.173Z,2.50
2022-11-27T02:36:01.112Z,3.13
2022-11-27T02:38:41.805Z,2.53
2022-11-27T02:41:18.050Z,2.60
2022-11-27T02:43:51.567Z,3.03
2022-11-27T02:46:20.788Z,2.95
2022-11-27T02:48:50.437Z,2.70
2022-11-27T02:51:26.520Z,2.92
2022-11-27T02:53:58.052Z,2.40
2022-11-27T02:56:28.184Z,2.53
2022-11-27T02:58:59.758Z,2.97
2022-11-27T03:01:32.465Z,3.03
2022-11-27T03:04:01.944Z,3.10
2022-11-27T03:06:42.213Z,2.90
2022-11-27T03:09:16.880Z,2.92
2022-11-27T03:11:44.147Z,2.70
2022-11-27T03:14:14.106Z,2.85
2022-11-27T03:16:55.459Z,2.90
2022-11-27T03:19:38.385Z,2.70
2022-11-27T03:22:05.400Z,3.10
2022-11-27T03:24:34.783Z,2.60
2022-11-27T03:27:02.628Z,2.97
2022-11-27T03:29:35.835Z,2.80
2022-11-27T03:32:04.235Z,2.60
2022-11-27T03:34:32.543Z,2.70
2022-11-27T03:36:59.869Z,3.17
2022-11-27T03:39:27.799Z,3.03
2022-11-27T03:42:15.697Z,3.17
2022-11-27T03:44:53.785Z,3.13
2022-11-27T03:48:03.298Z,3.33
2022-11-27T03:50:40.458Z,3.53
2022-11-27T03:53:40.018Z,3.50
2022-11-27T03:56:21.889Z,4.07
2022-11-27T03:58:56.113Z,3.47
2022-11-27T04:01:26.404Z,4.10
2022-11-27T04:03:53.744Z,3.83
2022-11-27T04:06:20.679Z,4.13
2022-11-27T04:08:47.837Z,4.20
2022-11-27T04:11:15.537Z,3.78
2022-11-27T04:13:42.859Z,4.20
2022-11-27T04:16:09.898Z,4.50
2022-11-27T04:18:39.303Z,4.18
2022-11-27T04:21:06.291Z,4.63
2022-11-27T04:23:33.165Z,4.63
2022-11-27T04:25:59.968Z,4.32
2022-11-27T04:28:26.889Z,4.57
2022-11-27T04:30:54.839Z,4.30
2022-11-27T04:33:22.886Z,4.20
2022-11-27T04:35:50.730Z,4.75
2022-11-27T04:38:18.833Z,4.70
2022-11-27T04:40:45.931Z,4.47
2022-11-27T04:43:12.857Z,4.57
2022-11-27T04:45:41.157Z,4.03
2022-11-27T04:48:07.998Z,4.40
2022-11-27T04:50:34.803Z,4.55
2022-11-27T04:53:01.698Z,4.15
2022-11-27T04:55:29.570Z,4.50
2022-11-27T04:57:56.473Z,4.65
2022-11-27T05:00:23.461Z,4.50
2022-11-27T05:02:50.572Z,4.53
2022-11-27T05:05:17.664Z,4.10
2022-11-27T05:07:44.590Z,4.07
2022-11-27T05:10:11.886Z,4.25
2022-11-27T05:12:38.910Z,3.70
2022-11-27T05:15:06.326Z,3.72
2022-11-27T05:17:33.157Z,4.15
2022-11-27T05:20:00.025Z,4.10
2022-11-27T05:22:27.077Z,4.00
2022-11-27T05:24:53.998Z,3.60
2022-11-27T05:27:20.836Z,4.03
2022-11-27T05:29:47.668Z,3.80
2022-11-27T05:32:14.598Z,4.50
2022-11-27T05:34:41.647Z,3.38
2022-11-27T05:37:08.760Z,4.03
2022-11-27T05:39:35.593Z,3.55
2022-11-27T05:42:02.547Z,3.45
2022-11-27T05:44:29.482Z,3.97
2022-11-27T05:46:57.325Z,3.75
2022-11-27T05:49:24.343Z,3.67
2022-11-27T05:51:51.882Z,3.55
2022-11-27T05:54:19.323Z,3.67
2022-11-27T05:56:46.250Z,3.20
2022-11-27T05:59:13.182Z,3.70
2022-11-27T06:01:40.121Z,3.65
2022-11-27T06:04:07.053Z,3.30
2022-11-27T06:06:33.899Z,3.05
2022-11-27T06:09:00.815Z,2.97
2022-11-27T06:11:27.691Z,3.23
2022-11-27T06:13:54.530Z,3.50
2022-11-27T06:16:24.103Z,3.63
2022-11-27T06:18:52.997Z,3.42
2022-11-27T06:21:21.215Z,3.35
2022-11-27T06:23:48.204Z,3.55
2022-11-27T06:26:17.127Z,3.40
2022-11-27T06:28:44.578Z,3.73
2022-11-27T06:31:17.999Z,3.33
2022-11-27T06:33:46.469Z,3.22
2022-11-27T06:36:13.364Z,3.47
2022-11-27T06:38:40.370Z,3.47
2022-11-27T06:41:12.851Z,3.20
2022-11-27T06:43:39.803Z,3.45
2022-11-27T06:46:08.428Z,3.22
2022-11-27T06:48:35.542Z,3.17
2022-11-27T06:51:04.302Z,3.53
2022-11-27T06:53:33.132Z,3.03
2022-11-27T06:56:02.146Z,3.50
2022-11-27T06:58:31.200Z,3.28
2022-11-27T07:01:04.223Z,3.45
2022-11-27T07:03:31.185Z,3.33
2022-11-27T07:06:02.653Z,3.05
2022-11-27T07:08:29.951Z,3.33
2022-11-27T07:11:08.539Z,3.40
2022-11-27T07:13:35.486Z,3.60
2022-11-27T07:16:08.103Z,3.60
2022-11-27T07:18:56.356Z,3.70
2022-11-27T07:21:23.975Z,3.55
2022-11-27T07:23:51.336Z,3.60
2022-11-27T07:26:21.394Z,2.70
2022-11-27T07:28:49.131Z,3.40
2022-11-27T07:31:22.555Z,3.45
2022-11-27T07:33:51.795Z,3.17
2022-11-27T07:36:24.046Z,3.70
2022-11-27T07:38:51.607Z,3.50
2022-11-27T07:41:18.559Z,3.70
2022-11-27T07:43:46.156Z,3.20
2022-11-27T07:46:18.962Z,3.30
2022-11-27T07:48:48.490Z,3.60
2022-11-27T07:51:17.611Z,3.40
2022-11-27T07:53:45.329Z,3.72
2022-11-27T07:56:14.078Z,3.55
2022-11-27T07:58:41.062Z,3.75
2022-11-27T08:01:10.316Z,3.53
2022-11-27T08:03:37.941Z,3.53
2022-11-27T08:06:05.552Z,3.65
2022-11-27T08:08:33.080Z,3.63
2022-11-27T08:10:59.976Z,3.72
2022-11-27T08:13:26.901Z,3.83
2022-11-27T08:15:54.193Z,4.05
2022-11-27T08:18:21.029Z,3.72
2022-11-27T08:20:47.888Z,4.18
2022-11-27T08:23:14.754Z,3.90
2022-11-27T08:25:41.638Z,4.00
2022-11-27T08:28:08.473Z,4.10
2022-11-27T08:30:35.364Z,4.57
2022-11-27T08:33:02.238Z,4.60
2022-11-27T08:35:29.111Z,5.93
2022-11-27T08:37:56.723Z,6.88
2022-11-27T08:40:23.637Z,6.97
2022-11-27T08:42:50.514Z,5.57
2022-11-27T08:45:20.981Z,4.07
2022-11-27T08:47:47.978Z,4.53
2022-11-27T08:50:14.848Z,3.60
2022-11-27T08:52:41.674Z,4.38
2022-11-27T08:55:08.931Z,3.97
2022-11-27T08:57:36.293Z,4.38
2022-11-27T09:00:04.382Z,4.22
2022-11-27T09:02:31.599Z,4.47
2022-11-27T09:04:58.667Z,3.95
2022-11-27T09:07:25.820Z,4.03
2022-11-27T09:09:52.818Z,3.60
2022-11-27T09:12:19.953Z,4.10
2022-11-27T09:14:46.937Z,4.15
2022-11-27T09:17:14.191Z,3.67
2022-11-27T09:19:41.062Z,4.75
2022-11-27T09:22:08.263Z,3.70
2022-11-27T09:24:36.859Z,4.28
2022-11-27T09:27:03.861Z,3.88
2022-11-27T09:29:31.982Z,3.95
2022-11-27T09:31:59.003Z,3.90
2022-11-27T09:34:25.975Z,4.00
2022-11-27T09:36:53.000Z,3.63
2022-11-27T09:39:20.246Z,4.00
2022-11-27T09:41:56.286Z,4.20
2022-11-27T09:44:42.790Z,3.50
2022-11-27T09:47:16.999Z,4.07
2022-11-27T09:49:48.168Z,4.18
2022-11-27T09:52:32.745Z,3.70
2022-11-27T09:55:29.017Z,4.03
2022-11-27T09:58:05.408Z,4.40
2022-11-27T10:00:32.370Z,4.20
2022-11-27T10:03:00.142Z,5.10
2022-11-27T10:05:39.883Z,4.13
2022-11-27T10:08:22.185Z,4.00
2022-11-27T10:11:07.513Z,3.90
2022-11-27T10:13:47.760Z,3.78
2022-11-27T10:16:41.399Z,4.55
2022-11-27T10:19:14.053Z,4.47
2022-11-27T10:22:19.614Z,3.70
2022-11-27T10:24:53.939Z,4.03
2022-11-27T10:27:25.670Z,3.70
2022-11-27T10:29:55.739Z,3.70
2022-11-27T10:35:22.278Z,3.53
2022-11-27T10:37:54.397Z,4.15
2022-11-27T10:40:34.316Z,4.07
2022-11-27T10:43:19.482Z,3.90
2022-11-27T10:45:49.782Z,3.38
2022-11-27T10:48:17.297Z,4.10
2022-11-27T10:50:46.002Z,3.70
2022-11-27T10:53:27.002Z,3.67
2022-11-27T10:56:11.772Z,4.00
2022-11-27T10:59:00.765Z,4.03
2022-11-27T11:01:40.624Z,3.80
2022-11-27T11:04:31.718Z,4.60
2022-11-27T11:06:58.513Z,3.83
2022-11-27T11:09:29.225Z,4.00
2022-11-27T11:12:15.189Z,4.13
2022-11-27T11:14:54.822Z,3.90
2022-11-27T11:17:37.221Z,3.60
2022-11-27T11:20:21.743Z,3.78
2022-11-27T11:22:49.379Z,3.85
2022-11-27T11:25:21.259Z,3.83
2022-11-27T11:27:51.506Z,3.58
2022-11-27T11:30:28.795Z,3.60
2022-11-27T11:33:02.234Z,3.35
2022-11-27T11:35:34.710Z,3.80
2022-11-27T11:38:05.419Z,3.25
2022-11-27T11:40:35.142Z,3.75
2022-11-27T11:43:07.325Z,4.22
2022-11-27T11:45:44.408Z,4.00
2022-11-27T11:48:24.228Z,3.85
2022-11-27T11:50:55.701Z,4.03
2022-11-27T11:53:37.516Z,4.10
2022-11-27T11:56:22.857Z,4.47
2022-11-27T11:58:54.677Z,4.20
2022-11-27T12:01:54.218Z,4.03
2022-11-27T12:05:03.495Z,4.15
2022-11-27T12:07:52.729Z,4.18
2022-11-27T12:10:50.932Z,4.63
2022-11-27T12:13:42.200Z,4.53
2022-11-27T12:16:27.150Z,3.70
2022-11-27T12:19:18.091Z,3.95
2022-11-27T12:22:37.290Z,3.90
2022-11-27T12:25:04.167Z,4.50
2022-11-27T12:28:02.344Z,4.53
2022-11-27T12:30:59.558Z,4.80
2022-11-27T12:33:45.565Z,4.80
2022-11-27T12:36:15.380Z,4.60
2022-11-27T12:39:03.325Z,4.40
2022-11-27T12:41:56.397Z,4.90
2022-11-27T12:44:53.488Z,4.18
2022-11-27T12:47:32.549Z,4.68
2022-11-27T12:50:33.942Z,4.50
2022-11-27T12:53:16.789Z,4.40
2022-11-27T12:55:59.050Z,5.10
2022-11-27T12:58:31.801Z,5.07
2022-11-27T13:01:07.689Z,5.80
2022-11-27T13:03:58.058Z,5.35
2022-11-27T13:06:28.631Z,5.63
2022-11-27T13:09:02.930Z,5.00
2022-11-27T13:11:33.618Z,5.70
2022-11-27T13:14:25.847Z,5.35
2022-11-27T13:17:05.176Z,5.88
2022-11-27T13:19:36.023Z,5.10
2022-11-27T13:22:11.667Z,4.00
2022-11-27T13:24:39.147Z,4.28
2022-11-27T13:27:15.205Z,5.87
2022-11-27T13:30:04.150Z,4.30
2022-11-27T13:32:47.486Z,5.10
2022-11-27T13:35:28.510Z,5.05
2022-11-27T13:38:09.873Z,5.53
2022-11-27T13:40:47.491Z,4.88
2022-11-27T13:43:33.179Z,5.20
2022-11-27T13:46:18.086Z,5.10
2022-11-27T13:49:05.693Z,5.88
2022-11-27T13:51:36.479Z,5.88
2022-11-27T13:54:12.399Z,6.38
2022-11-27T13:56:40.126Z,5.50
2022-11-27T13:59:15.784Z,5.18
2022-11-27T14:01:58.038Z,6.45
2022-11-27T14:04:26.310Z,5.45
2022-11-27T14:07:16.041Z,5.23
2022-11-27T14:09:53.134Z,5.65
2022-11-27T14:12:28.053Z,5.15
2022-11-27T14:15:02.787Z,5.57
2022-11-27T14:17:44.426Z,5.75
2022-11-27T14:20:17.241Z,6.28
2022-11-27T14:23:07.534Z,6.22
2022-11-27T14:25:36.327Z,7.35
2022-11-27T14:28:09.373Z,7.50
2022-11-27T14:30:44.662Z,8.05
2022-11-27T14:33:24.422Z,8.70
2022-11-27T14:35:54.372Z,7.65
2022-11-27T14:38:22.196Z,7.30
2022-11-27T14:40:50.044Z,7.95
2022-11-27T14:43:19.909Z,7.35
2022-11-27T14:45:49.614Z,8.00
2022-11-27T14:48:21.685Z,7.55
2022-11-27T14:50:50.108Z,8.10
2022-11-27T14:53:20.404Z,8.18
2022-11-27T14:55:49.958Z,7.85
2022-11-27T14:58:23.955Z,8.75
2022-11-27T15:00:58.140Z,8.60
2022-11-27T15:03:26.821Z,9.52
2022-11-27T15:06:07.672Z,8.98
2022-11-27T15:08:37.765Z,8.95
2022-11-27T15:11:05.761Z,11.43
2022-11-27T15:13:35.857Z,10.20
2022-11-27T15:16:16.117Z,13.13
2022-11-27T15:18:48.061Z,11.10
2022-11-27T15:21:21.188Z,10.25
2022-11-27T15:23:49.746Z,8.82
2022-11-27T15:26:33.418Z,8.63
2022-11-27T15:29:01.185Z,8.80
2022-11-27T15:31:37.209Z,8.48
2022-11-27T15:34:05.979Z,9.23
2022-11-27T15:36:42.026Z,8.13
2022-11-27T15:39:27.701Z,8.82
2022-11-27T15:42:00.414Z,11.85
2022-11-27T15:44:29.867Z,10.85
2022-11-27T15:46:59.402Z,10.02
2022-11-27T15:49:26.286Z,8.77
2022-11-27T15:51:54.631Z,7.80
2022-11-27T15:54:21.750Z,8.55
2022-11-27T15:56:48.988Z,7.75
2022-11-27T15:59:16.623Z,7.65
2022-11-27T16:01:43.657Z,8.13
2022-11-27T16:04:10.572Z,8.18
2022-11-27T16:06:38.168Z,7.63
2022-11-27T16:09:05.478Z,6.90
2022-11-27T16:11:32.841Z,7.25
2022-11-27T16:13:59.802Z,6.13
2022-11-27T16:16:27.345Z,6.03
2022-11-27T16:19:01.514Z,5.73
2022-11-27T16:21:30.163Z,5.60
2022-11-27T16:24:03.129Z,6.15
2022-11-27T16:26:30.311Z,5.32
2022-11-27T16:28:57.868Z,5.70
2022-11-27T16:31:26.685Z,5.37
2022-11-27T16:33:54.070Z,5.57
2022-11-27T16:36:24.178Z,4.45
2022-11-27T16:38:54.746Z,4.70
2022-11-27T16:41:24.713Z,7.20
2022-11-27T16:43:56.128Z,6.30
2022-11-27T16:46:26.932Z,5.70
2022-11-27T16:48:55.908Z,5.80
2022-11-27T16:51:26.293Z,5.65
2022-11-27T16:53:55.811Z,6.00
2022-11-27T16:56:25.012Z,6.18
2022-11-27T16:58:56.822Z,6.85
2022-11-27T17:01:32.250Z,9.15
2022-11-27T17:03:59.685Z,8.75
2022-11-27T17:06:29.068Z,8.97
2022-11-27T17:08:58.253Z,7.32
2022-11-27T17:11:27.984Z,6.32
2022-11-27T17:13:58.468Z,6.05
2022-11-27T17:16:25.658Z,6.43
2022-11-27T17:18:53.621Z,8.52
2022-11-27T17:21:29.418Z,6.50
2022-11-27T17:24:02.402Z,5.97
2022-11-27T17:26:35.522Z,6.25
2022-11-27T17:29:03.504Z,6.83
2022-11-27T17:31:33.689Z,7.00
2022-11-27T17:34:01.514Z,6.57
2022-11-27T17:36:35.227Z,6.00
2022-11-27T17:39:05.881Z,6.72
2022-11-27T17:41:33.640Z,6.53
2022-11-27T17:44:00.647Z,6.88
2022-11-27T17:46:28.986Z,7.53
2022-11-27T17:48:59.414Z,7.43
2022-11-27T17:51:31.005Z,8.43
2022-11-27T17:54:02.750Z,8.40
2022-11-27T17:56:33.844Z,7.70
2022-11-27T17:59:01.167Z,8.07
2022-11-27T18:01:30.870Z,8.02
2022-11-27T18:04:01.067Z,8.68
2022-11-27T18:06:30.553Z,8.10
2022-11-27T18:08:58.570Z,9.25
2022-11-27T18:11:28.376Z,15.57
2022-11-27T18:13:58.351Z,7.85
2022-11-27T18:16:31.637Z,7.78
2022-11-27T18:18:59.097Z,8.60
2022-11-27T18:21:29.416Z,7.82
2022-11-27T18:29:30.687Z,7.82
2022-11-27T18:31:57.605Z,8.35
2022-11-27T18:34:24.542Z,8.52
2022-11-27T18:36:51.474Z,8.63
2022-11-27T18:39:21.131Z,8.20
2022-11-27T18:41:48.018Z,8.63
2022-11-27T18:44:15.396Z,9.15
2022-11-27T18:46:42.561Z,9.52
2022-11-27T18:49:09.506Z,8.35
2022-11-27T18:51:36.475Z,8.80
2022-11-27T18:54:03.668Z,9.00
2022-11-27T18:56:31.929Z,8.15
2022-11-27T18:59:04.741Z,8.40
2022-11-27T19:01:40.924Z,9.25
2022-11-27T19:04:09.450Z,8.07
2022-11-27T19:06:37.393Z,8.88
2022-11-27T19:09:05.748Z,8.43
2022-11-27T19:11:33.939Z,8.00
2022-11-27T19:14:01.410Z,8.13
2022-11-27T19:16:44.259Z,9.27
2022-11-27T19:19:52.330Z,8.82
2022-11-27T19:22:01.031Z,8.38
2022-11-27T19:24:28.082Z,9.20
2022-11-27T19:26:57.748Z,10.43
2022-11-27T19:29:24.729Z,10.25
2022-11-27T19:31:52.234Z,9.73
2022-11-27T19:34:20.724Z,8.32
2022-11-27T19:36:47.758Z,10.15
2022-11-27T19:39:15.908Z,9.65
2022-11-27T19:41:43.977Z,9.93
2022-11-27T19:44:13.097Z,9.63
2022-11-27T19:46:40.440Z,9.63
2022-11-27T19:49:12.166Z,7.35
2022-11-27T19:51:40.453Z,8.80
2022-11-27T19:54:10.790Z,8.57
2022-11-27T19:56:40.405Z,10.33
2022-11-27T19:59:08.108Z,9.20
2022-11-27T20:01:35.938Z,9.73
2022-11-27T20:04:04.044Z,10.07
2022-11-27T20:06:31.120Z,9.02
2022-11-27T20:09:01.630Z,8.30
2022-11-27T20:11:34.576Z,9.80
2022-11-27T20:14:04.376Z,9.30
2022-11-27T20:16:33.188Z,9.20
2022-11-27T20:19:02.392Z,9.40
2022-11-27T20:21:29.384Z,8.50
2022-11-27T20:23:57.528Z,9.50
2022-11-27T20:26:27.280Z,9.77
2022-11-27T20:28:54.775Z,8.88
2022-11-27T20:31:27.392Z,9.25
2022-11-27T20:33:56.802Z,9.25
2022-11-27T20:36:25.207Z,9.07
2022-11-27T20:38:55.517Z,8.93
2022-11-27T20:41:23.887Z,10.50
2022-11-27T20:43:55.472Z,8.52
2022-11-27T20:46:23.626Z,9.37
2022-11-27T20:48:52.911Z,9.27
2022-11-27T20:51:24.034Z,8.45
2022-11-27T20:53:52.141Z,8.95
2022-11-27T20:56:20.530Z,8.70
2022-11-27T20:58:48.679Z,9.23
2022-11-27T21:01:23.173Z,8.32
2022-11-27T21:03:51.519Z,9.07
2022-11-27T21:06:21.130Z,7.77
2022-11-27T21:08:49.119Z,8.70
2022-11-27T21:11:27.382Z,7.63
2022-11-27T21:13:58.288Z,8.20
2022-11-27T21:16:27.550Z,8.25
2022-11-27T21:18:56.703Z,8.45
2022-11-27T21:21:23.991Z,9.13
2022-11-27T21:23:51.312Z,8.88
2022-11-27T21:26:18.622Z,9.52
2022-11-27T21:28:46.270Z,9.02
2022-11-27T21:31:17.777Z,8.68
2022-11-27T21:33:55.696Z,8.25
2022-11-27T21:36:26.084Z,8.40
2022-11-27T21:38:53.389Z,8.00
2022-11-27T21:41:21.566Z,7.57
2022-11-27T21:43:49.484Z,7.68
2022-11-27T21:46:19.004Z,8.90
2022-11-27T21:48:47.615Z,8.38
2022-11-27T21:51:19.044Z,8.43
2022-11-27T21:53:48.882Z,8.40
2022-11-27T21:56:18.453Z,7.55
2022-11-27T21:58:45.651Z,8.07
2022-11-27T22:01:15.757Z,8.80
2022-11-27T22:03:43.183Z,7.80
2022-11-27T22:06:12.894Z,7.72
2022-11-27T22:08:41.155Z,8.27
2022-11-27T22:11:16.780Z,8.27
2022-11-27T22:13:44.191Z,8.18
2022-11-27T22:16:23.076Z,6.35
2022-11-27T22:18:50.607Z,8.38
2022-11-27T22:21:17.665Z,7.93
2022-11-27T22:23:44.741Z,8.60
2022-11-27T22:26:13.923Z,7.68
2022-11-27T22:28:41.348Z,8.23
2022-11-27T22:31:17.842Z,8.10
2022-11-27T22:33:45.735Z,8.48
2022-11-27T22:36:23.736Z,7.65
2022-11-27T22:38:53.256Z,7.00
2022-11-27T22:41:22.614Z,7.63
2022-11-27T22:43:49.880Z,7.93
2022-11-27T22:46:29.254Z,7.80
2022-11-27T22:49:01.009Z,9.07
2022-11-27T22:51:30.337Z,8.53
2022-11-27T22:53:57.670Z,8.73
2022-11-27T22:56:24.681Z,8.40
2022-11-27T22:59:06.094Z,7.97
2022-11-27T23:01:40.899Z,7.97
2022-11-27T23:04:07.993Z,7.88
2022-11-27T23:06:34.839Z,7.63
2022-11-27T23:09:01.755Z,8.20
2022-11-27T23:11:29.322Z,8.27
2022-11-27T23:13:58.106Z,8.15
2022-11-27T23:16:25.334Z,8.27
2022-11-27T23:18:52.200Z,8.77
2022-11-27T23:21:21.407Z,8.45
2022-11-27T23:23:48.349Z,7.82
2022-11-27T23:26:18.693Z,7.38
2022-11-27T23:28:46.785Z,7.70
2022-11-27T23:31:32.275Z,8.35
2022-11-27T23:34:03.732Z,7.63
2022-11-27T23:36:32.127Z,7.80
2022-11-27T23:39:05.370Z,7.20
2022-11-27T23:41:32.302Z,7.25
2022-11-27T23:43:59.551Z,7.63
2022-11-27T23:46:28.399Z,7.80
2022-11-27T23:48:59.475Z,7.65
2022-11-27T23:51:30.351Z,7.70
2022-11-27T23:53:57.494Z,7.03
2022-11-27T23:56:31.583Z,7.90
2022-11-27T23:58:59.039Z,7.67
